sensor_id;sensor_type;location;lat;lon;timestamp;pressure;altitude;pressure_sealevel;temperature;humidity
40502;BME280;29631;49.168;9.848;2023-01-16T00:01:36;95469.50;;;8.34;81.69
40502;BME280;29631;49.168;9.848;2023-01-16T00:04:02;95472.72;;;8.36;82.31
40502;BME280;29631;49.168;9.848;2023-01-16T00:06:27;95461.72;;;8.27;82.22
40502;BME280;29631;49.168;9.848;2023-01-16T00:08:53;95471.84;;;8.42;81.54
40502;BME280;29631;49.168;9.848;2023-01-16T00:11:19;95459.94;;;8.39;81.58
40502;BME280;29631;49.168;9.848;2023-01-16T00:13:45;95442.19;;;8.23;82.22
40502;BME280;29631;49.168;9.848;2023-01-16T00:16:10;95462.94;;;8.43;81.45
40502;BME280;29631;49.168;9.848;2023-01-16T00:18:36;95487.53;;;8.48;81.89
40502;BME280;29631;49.168;9.848;2023-01-16T00:21:02;95466.94;;;8.45;82.16
40502;BME280;29631;49.168;9.848;2023-01-16T00:23:28;95443.47;;;8.32;81.43
40502;BME280;29631;49.168;9.848;2023-01-16T00:25:54;95443.41;;;8.39;82.20
40502;BME280;29631;49.168;9.848;2023-01-16T00:28:20;95431.22;;;8.26;81.94
40502;BME280;29631;49.168;9.848;2023-01-16T00:30:46;95430.44;;;8.26;81.77
40502;BME280;29631;49.168;9.848;2023-01-16T00:33:12;95434.00;;;8.31;82.14
40502;BME280;29631;49.168;9.848;2023-01-16T00:35:38;95437.13;;;8.40;81.42
40502;BME280;29631;49.168;9.848;2023-01-16T00:38:04;95389.28;;;8.02;81.97
40502;BME280;29631;49.168;9.848;2023-01-16T00:40:30;95414.97;;;8.36;81.03
40502;BME280;29631;49.168;9.848;2023-01-16T00:42:56;95428.94;;;8.48;81.15
40502;BME280;29631;49.168;9.848;2023-01-16T00:45:22;95429.94;;;8.47;81.22
40502;BME280;29631;49.168;9.848;2023-01-16T00:47:47;95427.78;;;8.44;81.78
40502;BME280;29631;49.168;9.848;2023-01-16T00:50:13;95427.25;;;8.53;80.95
40502;BME280;29631;49.168;9.848;2023-01-16T00:52:39;95420.28;;;8.47;81.78
40502;BME280;29631;49.168;9.848;2023-01-16T00:55:05;95414.00;;;8.48;80.96
40502;BME280;29631;49.168;9.848;2023-01-16T00:57:31;95397.75;;;8.40;81.64
40502;BME280;29631;49.168;9.848;2023-01-16T00:59:57;95405.31;;;8.48;81.27
40502;BME280;29631;49.168;9.848;2023-01-16T01:02:23;95410.72;;;8.53;80.64
40502;BME280;29631;49.168;9.848;2023-01-16T01:04:48;95397.88;;;8.45;81.11
40502;BME280;29631;49.168;9.848;2023-01-16T01:07:14;95390.56;;;8.47;81.56
40502;BME280;29631;49.168;9.848;2023-01-16T01:09:40;95373.66;;;8.43;80.93
40502;BME280;29631;49.168;9.848;2023-01-16T01:12:05;95353.97;;;8.34;81.07
40502;BME280;29631;49.168;9.848;2023-01-16T01:14:31;95378.16;;;8.54;80.76
40502;BME280;29631;49.168;9.848;2023-01-16T01:16:57;95372.78;;;8.49;81.15
40502;BME280;29631;49.168;9.848;2023-01-16T01:19:23;95322.03;;;8.07;80.74
40502;BME280;29631;49.168;9.848;2023-01-16T01:21:48;95381.22;;;8.51;81.07
40502;BME280;29631;49.168;9.848;2023-01-16T01:24:14;95334.69;;;8.28;80.91
40502;BME280;29631;49.168;9.848;2023-01-16T01:26:40;95357.31;;;8.41;80.75
40502;BME280;29631;49.168;9.848;2023-01-16T01:29:06;95371.03;;;8.43;80.46
40502;BME280;29631;49.168;9.848;2023-01-16T01:31:31;95326.78;;;8.17;80.51
40502;BME280;29631;49.168;9.848;2023-01-16T01:33:57;95353.13;;;8.40;80.65
40502;BME280;29631;49.168;9.848;2023-01-16T01:36:23;95327.84;;;8.27;80.53
40502;BME280;29631;49.168;9.848;2023-01-16T01:38:48;95344.19;;;8.41;80.55
40502;BME280;29631;49.168;9.848;2023-01-16T01:41:17;95331.06;;;8.41;81.02
40502;BME280;29631;49.168;9.848;2023-01-16T01:43:46;95313.69;;;8.28;81.21
40502;BME280;29631;49.168;9.848;2023-01-16T01:48:56;95288.00;;;8.19;80.44
40502;BME280;29631;49.168;9.848;2023-01-16T01:51:35;95315.19;;;8.36;81.06
40502;BME280;29631;49.168;9.848;2023-01-16T01:54:10;95302.97;;;8.30;81.38
40502;BME280;29631;49.168;9.848;2023-01-16T01:56:49;95311.97;;;8.34;80.85
40502;BME280;29631;49.168;9.848;2023-01-16T01:59:25;95306.41;;;8.30;81.32
40502;BME280;29631;49.168;9.848;2023-01-16T02:01:53;95294.75;;;8.26;80.92
40502;BME280;29631;49.168;9.848;2023-01-16T02:04:30;95302.38;;;8.28;81.13
40502;BME280;29631;49.168;9.848;2023-01-16T02:07:05;95284.34;;;8.20;80.59
40502;BME280;29631;49.168;9.848;2023-01-16T02:09:32;95287.44;;;8.28;80.65
40502;BME280;29631;49.168;9.848;2023-01-16T02:12:10;95287.22;;;8.30;81.79
40502;BME280;29631;49.168;9.848;2023-01-16T02:14:40;95282.19;;;8.28;81.26
40502;BME280;29631;49.168;9.848;2023-01-16T02:20:23;95279.63;;;8.40;81.53
40502;BME280;29631;49.168;9.848;2023-01-16T02:23:25;95275.59;;;8.37;81.29
40502;BME280;29631;49.168;9.848;2023-01-16T02:26:06;95265.09;;;8.37;81.72
40502;BME280;29631;49.168;9.848;2023-01-16T02:31:54;95243.72;;;8.34;80.39
40502;BME280;29631;49.168;9.848;2023-01-16T02:37:14;95226.28;;;8.39;80.50
40502;BME280;29631;49.168;9.848;2023-01-16T02:40:18;95209.59;;;8.34;81.20
40502;BME280;29631;49.168;9.848;2023-01-16T02:51:49;95173.19;;;8.37;81.63
40502;BME280;29631;49.168;9.848;2023-01-16T02:54:50;95162.00;;;8.42;81.58
40502;BME280;29631;49.168;9.848;2023-01-16T02:57:22;95146.75;;;8.39;80.96
40502;BME280;29631;49.168;9.848;2023-01-16T02:59:50;95151.06;;;8.45;81.23
40502;BME280;29631;49.168;9.848;2023-01-16T03:02:16;95130.16;;;8.38;80.32
40502;BME280;29631;49.168;9.848;2023-01-16T03:04:46;95072.16;;;8.05;80.51
40502;BME280;29631;49.168;9.848;2023-01-16T03:26:07;95078.47;;;8.16;81.18
40502;BME280;29631;49.168;9.848;2023-01-16T03:29:12;95074.13;;;8.10;80.67
40502;BME280;29631;49.168;9.848;2023-01-16T03:32:32;95045.38;;;7.92;80.44
40502;BME280;29631;49.168;9.848;2023-01-16T03:35:13;95059.19;;;7.99;80.80
40502;BME280;29631;49.168;9.848;2023-01-16T03:37:51;95048.56;;;7.94;80.72
40502;BME280;29631;49.168;9.848;2023-01-16T03:40:26;95026.56;;;7.84;80.70
40502;BME280;29631;49.168;9.848;2023-01-16T03:43:20;95039.53;;;7.90;81.29
40502;BME280;29631;49.168;9.848;2023-01-16T03:46:08;95028.03;;;7.80;80.82
40502;BME280;29631;49.168;9.848;2023-01-16T03:51:53;95013.44;;;7.72;80.87
40502;BME280;29631;49.168;9.848;2023-01-16T03:57:41;94996.91;;;7.72;80.74
40502;BME280;29631;49.168;9.848;2023-01-16T04:00:10;94999.88;;;7.75;81.38
40502;BME280;29631;49.168;9.848;2023-01-16T04:05:17;94996.88;;;7.83;81.14
40502;BME280;29631;49.168;9.848;2023-01-16T04:07:58;94989.69;;;7.90;80.51
40502;BME280;29631;49.168;9.848;2023-01-16T04:10:33;94979.56;;;7.93;81.01
40502;BME280;29631;49.168;9.848;2023-01-16T04:13:13;94959.81;;;7.91;80.29
40502;BME280;29631;49.168;9.848;2023-01-16T04:15:44;94961.88;;;7.89;80.26
40502;BME280;29631;49.168;9.848;2023-01-16T04:18:11;94974.19;;;8.00;80.25
40502;BME280;29631;49.168;9.848;2023-01-16T04:20:39;94961.09;;;8.00;80.80
40502;BME280;29631;49.168;9.848;2023-01-16T04:23:07;94953.22;;;8.00;80.89
40502;BME280;29631;49.168;9.848;2023-01-16T04:25:32;94934.94;;;8.05;80.00
40502;BME280;29631;49.168;9.848;2023-01-16T04:27:58;94926.06;;;8.06;79.98
40502;BME280;29631;49.168;9.848;2023-01-16T04:30:24;94885.72;;;7.84;80.09
40502;BME280;29631;49.168;9.848;2023-01-16T04:32:50;94913.03;;;8.11;79.84
40502;BME280;29631;49.168;9.848;2023-01-16T04:35:15;94929.19;;;8.31;80.16
40502;BME280;29631;49.168;9.848;2023-01-16T04:37:41;94922.44;;;8.35;79.92
40502;BME280;29631;49.168;9.848;2023-01-16T04:40:08;94921.63;;;8.46;80.09
40502;BME280;29631;49.168;9.848;2023-01-16T04:42:34;94878.75;;;8.29;80.00
40502;BME280;29631;49.168;9.848;2023-01-16T04:45:02;94848.44;;;8.10;80.00
40502;BME280;29631;49.168;9.848;2023-01-16T04:47:27;94898.53;;;8.48;79.66
40502;BME280;29631;49.168;9.848;2023-01-16T04:49:53;94875.19;;;8.35;80.49
40502;BME280;29631;49.168;9.848;2023-01-16T04:52:19;94871.47;;;8.31;80.16
40502;BME280;29631;49.168;9.848;2023-01-16T04:54:44;94869.41;;;8.33;79.37
40502;BME280;29631;49.168;9.848;2023-01-16T04:57:10;94869.28;;;8.28;79.47
40502;BME280;29631;49.168;9.848;2023-01-16T04:59:36;94872.41;;;8.25;80.16
40502;BME280;29631;49.168;9.848;2023-01-16T05:02:02;94790.97;;;7.81;80.08
40502;BME280;29631;49.168;9.848;2023-01-16T05:04:27;94831.59;;;8.06;79.54
40502;BME280;29631;49.168;9.848;2023-01-16T05:06:53;94850.50;;;8.19;80.17
40502;BME280;29631;49.168;9.848;2023-01-16T05:09:19;94847.53;;;8.16;79.88
40502;BME280;29631;49.168;9.848;2023-01-16T05:11:44;94849.72;;;8.19;80.03
40502;BME280;29631;49.168;9.848;2023-01-16T05:14:10;94824.06;;;8.09;79.86
40502;BME280;29631;49.168;9.848;2023-01-16T05:16:38;94829.75;;;8.18;79.84
40502;BME280;29631;49.168;9.848;2023-01-16T05:19:04;94833.41;;;8.17;79.88
40502;BME280;29631;49.168;9.848;2023-01-16T05:21:31;94767.88;;;7.66;79.79
40502;BME280;29631;49.168;9.848;2023-01-16T05:23:57;94822.13;;;8.16;79.94
40502;BME280;29631;49.168;9.848;2023-01-16T05:26:22;94818.56;;;8.22;79.10
40502;BME280;29631;49.168;9.848;2023-01-16T05:28:48;94816.25;;;8.26;79.80
40502;BME280;29631;49.168;9.848;2023-01-16T05:31:14;94790.13;;;8.19;79.71
40502;BME280;29631;49.168;9.848;2023-01-16T05:33:40;94781.56;;;8.24;79.60
40502;BME280;29631;49.168;9.848;2023-01-16T05:36:06;94787.31;;;8.37;79.18
40502;BME280;29631;49.168;9.848;2023-01-16T05:38:32;94751.34;;;8.21;79.19
40502;BME280;29631;49.168;9.848;2023-01-16T05:40:58;94769.81;;;8.43;79.37
40502;BME280;29631;49.168;9.848;2023-01-16T05:43:24;94764.63;;;8.48;79.51
40502;BME280;29631;49.168;9.848;2023-01-16T05:45:50;94697.88;;;8.11;78.93
40502;BME280;29631;49.168;9.848;2023-01-16T05:48:16;94743.56;;;8.43;79.29
40502;BME280;29631;49.168;9.848;2023-01-16T05:50:41;94741.50;;;8.45;79.25
40502;BME280;29631;49.168;9.848;2023-01-16T05:53:07;94730.44;;;8.43;79.02
40502;BME280;29631;49.168;9.848;2023-01-16T05:55:43;94669.09;;;8.16;79.15
40502;BME280;29631;49.168;9.848;2023-01-16T05:58:11;94707.38;;;8.45;79.60
40502;BME280;29631;49.168;9.848;2023-01-16T06:00:38;94721.47;;;8.55;80.12
40502;BME280;29631;49.168;9.848;2023-01-16T06:03:04;94706.66;;;8.49;79.42
40502;BME280;29631;49.168;9.848;2023-01-16T06:05:30;94716.53;;;8.59;79.20
40502;BME280;29631;49.168;9.848;2023-01-16T06:07:56;94699.56;;;8.50;79.42
40502;BME280;29631;49.168;9.848;2023-01-16T06:10:23;94687.53;;;8.54;79.72
40502;BME280;29631;49.168;9.848;2023-01-16T06:12:49;94690.16;;;8.54;78.83
40502;BME280;29631;49.168;9.848;2023-01-16T06:15:15;94621.63;;;8.01;79.82
40502;BME280;29631;49.168;9.848;2023-01-16T06:17:40;94674.34;;;8.49;78.60
40502;BME280;29631;49.168;9.848;2023-01-16T06:20:08;94679.59;;;8.49;79.28
40502;BME280;29631;49.168;9.848;2023-01-16T06:22:34;94676.41;;;8.47;78.77
40502;BME280;29631;49.168;9.848;2023-01-16T06:24:59;94666.97;;;8.46;78.49
40502;BME280;29631;49.168;9.848;2023-01-16T06:27:25;94636.34;;;8.35;79.48
40502;BME280;29631;49.168;9.848;2023-01-16T06:29:51;94653.28;;;8.44;79.13
40502;BME280;29631;49.168;9.848;2023-01-16T06:32:16;94631.31;;;8.33;78.83
40502;BME280;29631;49.168;9.848;2023-01-16T06:34:43;94642.16;;;8.37;78.41
40502;BME280;29631;49.168;9.848;2023-01-16T06:37:09;94629.19;;;8.30;79.06
40502;BME280;29631;49.168;9.848;2023-01-16T06:39:35;94592.91;;;8.11;78.34
40502;BME280;29631;49.168;9.848;2023-01-16T06:42:01;94611.28;;;8.27;78.34
40502;BME280;29631;49.168;9.848;2023-01-16T06:44:29;94592.91;;;8.11;79.00
40502;BME280;29631;49.168;9.848;2023-01-16T06:46:55;94590.38;;;8.16;78.58
40502;BME280;29631;49.168;9.848;2023-01-16T06:49:21;94568.09;;;8.02;78.77
40502;BME280;29631;49.168;9.848;2023-01-16T06:51:46;94549.53;;;7.87;78.44
40502;BME280;29631;49.168;9.848;2023-01-16T06:54:12;94580.03;;;8.09;78.65
40502;BME280;29631;49.168;9.848;2023-01-16T06:56:38;94574.94;;;8.03;78.84
40502;BME280;29631;49.168;9.848;2023-01-16T06:59:03;94547.44;;;7.89;79.04
40502;BME280;29631;49.168;9.848;2023-01-16T07:01:29;94554.59;;;7.93;79.34
40502;BME280;29631;49.168;9.848;2023-01-16T07:03:55;94501.34;;;7.55;78.68
40502;BME280;29631;49.168;9.848;2023-01-16T07:06:21;94549.69;;;7.97;78.64
40502;BME280;29631;49.168;9.848;2023-01-16T07:08:46;94521.16;;;7.84;78.81
40502;BME280;29631;49.168;9.848;2023-01-16T07:11:17;94513.22;;;7.79;78.44
40502;BME280;29631;49.168;9.848;2023-01-16T07:13:42;94522.88;;;7.95;78.73
40502;BME280;29631;49.168;9.848;2023-01-16T07:16:11;94482.16;;;7.71;78.96
40502;BME280;29631;49.168;9.848;2023-01-16T07:18:56;94519.88;;;7.87;78.50
40502;BME280;29631;49.168;9.848;2023-01-16T07:21:43;94510.59;;;7.79;78.75
40502;BME280;29631;49.168;9.848;2023-01-16T07:24:31;94496.31;;;7.70;79.32
40502;BME280;29631;49.168;9.848;2023-01-16T07:27:01;94502.19;;;7.77;79.22
40502;BME280;29631;49.168;9.848;2023-01-16T07:29:32;94489.47;;;7.69;79.44
40502;BME280;29631;49.168;9.848;2023-01-16T07:31:59;94502.81;;;7.84;78.90
40502;BME280;29631;49.168;9.848;2023-01-16T07:34:27;94492.63;;;7.88;78.87
40502;BME280;29631;49.168;9.848;2023-01-16T07:36:52;94459.38;;;7.72;79.29
40502;BME280;29631;49.168;9.848;2023-01-16T07:39:18;94478.56;;;7.77;79.18
40502;BME280;29631;49.168;9.848;2023-01-16T07:41:44;94483.41;;;7.85;79.18
40502;BME280;29631;49.168;9.848;2023-01-16T07:44:10;94467.13;;;7.83;78.93
40502;BME280;29631;49.168;9.848;2023-01-16T07:46:36;94472.94;;;7.85;78.36
40502;BME280;29631;49.168;9.848;2023-01-16T07:49:02;94464.19;;;7.80;79.10
40502;BME280;29631;49.168;9.848;2023-01-16T07:51:28;94462.13;;;7.82;79.28
40502;BME280;29631;49.168;9.848;2023-01-16T07:53:53;94449.19;;;7.75;79.04
40502;BME280;29631;49.168;9.848;2023-01-16T07:56:19;94460.38;;;7.87;79.10
40502;BME280;29631;49.168;9.848;2023-01-16T07:58:45;94397.50;;;7.54;79.27
40502;BME280;29631;49.168;9.848;2023-01-16T08:01:11;94451.78;;;7.92;79.04
40502;BME280;29631;49.168;9.848;2023-01-16T08:03:37;94452.56;;;7.92;79.03
40502;BME280;29631;49.168;9.848;2023-01-16T08:06:03;94416.97;;;7.58;78.40
40502;BME280;29631;49.168;9.848;2023-01-16T08:08:30;94446.06;;;7.78;78.32
40502;BME280;29631;49.168;9.848;2023-01-16T08:10:58;94437.13;;;7.74;78.70
40502;BME280;29631;49.168;9.848;2023-01-16T08:13:25;94380.31;;;7.25;78.88
40502;BME280;29631;49.168;9.848;2023-01-16T08:15:52;94395.47;;;7.56;78.44
40502;BME280;29631;49.168;9.848;2023-01-16T08:18:18;94415.66;;;7.77;78.12
40502;BME280;29631;49.168;9.848;2023-01-16T08:20:46;94397.78;;;7.74;78.04
40502;BME280;29631;49.168;9.848;2023-01-16T08:23:12;94378.56;;;7.69;77.97
40502;BME280;29631;49.168;9.848;2023-01-16T08:25:38;94400.38;;;7.91;78.81
40502;BME280;29631;49.168;9.848;2023-01-16T08:28:04;94392.91;;;8.04;78.68
40502;BME280;29631;49.168;9.848;2023-01-16T08:30:30;94392.63;;;8.22;77.81
40502;BME280;29631;49.168;9.848;2023-01-16T08:33:00;94374.75;;;8.19;77.67
40502;BME280;29631;49.168;9.848;2023-01-16T08:35:27;94390.13;;;8.32;77.42
40502;BME280;29631;49.168;9.848;2023-01-16T08:37:53;94378.63;;;8.38;77.19
40502;BME280;29631;49.168;9.848;2023-01-16T08:40:19;94363.19;;;8.41;78.04
40502;BME280;29631;49.168;9.848;2023-01-16T08:42:46;94375.41;;;8.57;77.05
40502;BME280;29631;49.168;9.848;2023-01-16T08:45:31;94366.19;;;8.55;77.25
40502;BME280;29631;49.168;9.848;2023-01-16T08:48:23;94361.75;;;8.55;77.71
40502;BME280;29631;49.168;9.848;2023-01-16T08:51:28;94370.97;;;8.58;77.44
40502;BME280;29631;49.168;9.848;2023-01-16T08:53:55;94356.72;;;8.54;77.59
40502;BME280;29631;49.168;9.848;2023-01-16T08:56:23;94343.28;;;8.50;77.82
40502;BME280;29631;49.168;9.848;2023-01-16T08:58:49;94342.84;;;8.58;77.75
40502;BME280;29631;49.168;9.848;2023-01-16T09:01:15;94353.06;;;8.55;78.13
40502;BME280;29631;49.168;9.848;2023-01-16T09:03:41;94343.56;;;8.49;77.31
40502;BME280;29631;49.168;9.848;2023-01-16T09:06:07;94347.84;;;8.60;77.07
40502;BME280;29631;49.168;9.848;2023-01-16T09:08:33;94335.19;;;8.52;77.66
40502;BME280;29631;49.168;9.848;2023-01-16T09:10:59;94352.88;;;8.61;77.50
40502;BME280;29631;49.168;9.848;2023-01-16T09:13:43;94350.00;;;8.63;78.23
40502;BME280;29631;49.168;9.848;2023-01-16T09:16:20;94344.44;;;8.59;77.76
40502;BME280;29631;49.168;9.848;2023-01-16T09:18:46;94328.44;;;8.61;77.64
40502;BME280;29631;49.168;9.848;2023-01-16T09:21:13;94358.19;;;8.71;77.92
40502;BME280;29631;49.168;9.848;2023-01-16T09:23:39;94329.06;;;8.72;77.70
40502;BME280;29631;49.168;9.848;2023-01-16T09:26:05;94334.44;;;8.87;77.92
40502;BME280;29631;49.168;9.848;2023-01-16T09:28:31;94303.91;;;8.81;77.25
40502;BME280;29631;49.168;9.848;2023-01-16T09:30:57;94307.41;;;8.92;77.79
40502;BME280;29631;49.168;9.848;2023-01-16T09:33:22;94297.69;;;8.92;77.21
40502;BME280;29631;49.168;9.848;2023-01-16T09:35:48;94314.31;;;9.03;76.74
40502;BME280;29631;49.168;9.848;2023-01-16T09:38:14;94322.50;;;9.11;76.78
40502;BME280;29631;49.168;9.848;2023-01-16T09:40:45;94314.41;;;9.13;76.96
40502;BME280;29631;49.168;9.848;2023-01-16T09:43:40;94292.00;;;9.05;76.94
40502;BME280;29631;49.168;9.848;2023-01-16T09:46:25;94308.66;;;9.21;77.39
40502;BME280;29631;49.168;9.848;2023-01-16T09:49:04;94285.28;;;9.24;77.50
40502;BME280;29631;49.168;9.848;2023-01-16T09:51:39;94295.84;;;9.34;77.64
40502;BME280;29631;49.168;9.848;2023-01-16T09:54:21;94275.88;;;9.33;78.30
40502;BME280;29631;49.168;9.848;2023-01-16T09:57:13;94267.22;;;9.33;77.00
40502;BME280;29631;49.168;9.848;2023-01-16T10:00:00;94268.22;;;9.27;76.90
40502;BME280;29631;49.168;9.848;2023-01-16T10:02:34;94277.38;;;9.24;77.01
40502;BME280;29631;49.168;9.848;2023-01-16T10:05:03;94250.31;;;9.24;77.46
40502;BME280;29631;49.168;9.848;2023-01-16T10:10:42;94260.56;;;9.20;76.66
40502;BME280;29631;49.168;9.848;2023-01-16T10:18:56;94321.97;;;9.04;76.57
40502;BME280;29631;49.168;9.848;2023-01-16T10:24:19;94289.28;;;8.90;76.53
40502;BME280;29631;49.168;9.848;2023-01-16T10:27:15;94285.06;;;8.89;76.60
40502;BME280;29631;49.168;9.848;2023-01-16T10:30:00;94248.19;;;8.74;76.55
40502;BME280;29631;49.168;9.848;2023-01-16T10:32:34;94259.00;;;8.83;76.46
40502;BME280;29631;49.168;9.848;2023-01-16T10:35:25;94244.03;;;8.78;76.62
40502;BME280;29631;49.168;9.848;2023-01-16T10:37:53;94237.75;;;8.84;76.47
40502;BME280;29631;49.168;9.848;2023-01-16T10:40:24;94225.16;;;8.86;76.65
40502;BME280;29631;49.168;9.848;2023-01-16T10:43:17;94213.63;;;8.92;76.44
40502;BME280;29631;49.168;9.848;2023-01-16T10:46:20;94210.53;;;9.00;76.57
40502;BME280;29631;49.168;9.848;2023-01-16T10:49:19;94189.78;;;9.04;76.67
40502;BME280;29631;49.168;9.848;2023-01-16T10:52:01;94161.13;;;8.97;76.93
40502;BME280;29631;49.168;9.848;2023-01-16T10:54:29;94182.47;;;9.16;76.77
40502;BME280;29631;49.168;9.848;2023-01-16T10:56:55;94185.94;;;9.26;76.11
40502;BME280;29631;49.168;9.848;2023-01-16T10:59:27;94146.72;;;9.10;75.75
40502;BME280;29631;49.168;9.848;2023-01-16T11:01:56;94163.59;;;9.29;76.39
40502;BME280;29631;49.168;9.848;2023-01-16T11:04:34;94145.97;;;9.24;75.46
40502;BME280;29631;49.168;9.848;2023-01-16T11:07:19;94143.38;;;9.34;75.58
40502;BME280;29631;49.168;9.848;2023-01-16T11:09:46;94137.31;;;9.34;75.78
40502;BME280;29631;49.168;9.848;2023-01-16T11:12:24;94138.94;;;9.44;74.91
40502;BME280;29631;49.168;9.848;2023-01-16T11:15:17;94145.75;;;9.40;75.97
40502;BME280;29631;49.168;9.848;2023-01-16T11:18:02;94146.56;;;9.46;75.17
40502;BME280;29631;49.168;9.848;2023-01-16T11:20:46;94141.81;;;9.43;75.43
40502;BME280;29631;49.168;9.848;2023-01-16T11:23:19;94163.38;;;9.45;75.94
40502;BME280;29631;49.168;9.848;2023-01-16T11:25:47;94162.84;;;9.43;75.50
40502;BME280;29631;49.168;9.848;2023-01-16T11:28:28;94095.47;;;9.07;75.44
40502;BME280;29631;49.168;9.848;2023-01-16T11:31:20;94124.44;;;9.32;74.71
40502;BME280;29631;49.168;9.848;2023-01-16T11:33:50;94126.28;;;9.27;74.70
40502;BME280;29631;49.168;9.848;2023-01-16T11:36:25;94133.09;;;9.28;75.45
40502;BME280;29631;49.168;9.848;2023-01-16T11:38:53;94136.00;;;9.26;75.29
40502;BME280;29631;49.168;9.848;2023-01-16T11:41:24;94101.78;;;9.11;74.49
40502;BME280;29631;49.168;9.848;2023-01-16T11:44:14;94108.66;;;9.17;75.49
40502;BME280;29631;49.168;9.848;2023-01-16T11:47:00;94103.41;;;9.17;75.64
40502;BME280;29631;49.168;9.848;2023-01-16T11:49:38;94094.97;;;9.15;75.71
40502;BME280;29631;49.168;9.848;2023-01-16T11:52:04;94086.03;;;9.16;75.92
40502;BME280;29631;49.168;9.848;2023-01-16T11:54:34;94076.03;;;9.18;75.24
40502;BME280;29631;49.168;9.848;2023-01-16T11:57:54;94080.81;;;9.26;75.94
40502;BME280;29631;49.168;9.848;2023-01-16T12:06:41;94044.53;;;9.38;75.81
40502;BME280;29631;49.168;9.848;2023-01-16T12:09:19;94046.94;;;9.44;74.94
40502;BME280;29631;49.168;9.848;2023-01-16T12:18:16;94015.09;;;9.46;75.17
40502;BME280;29631;49.168;9.848;2023-01-16T12:21:02;94007.22;;;9.41;74.58
40502;BME280;29631;49.168;9.848;2023-01-16T12:27:03;94004.59;;;9.41;74.40
40502;BME280;29631;49.168;9.848;2023-01-16T12:38:29;93971.47;;;9.45;75.38
40502;BME280;29631;49.168;9.848;2023-01-16T12:41:09;93968.81;;;9.50;74.80
40502;BME280;29631;49.168;9.848;2023-01-16T12:50:11;93947.78;;;9.50;74.21
40502;BME280;29631;49.168;9.848;2023-01-16T12:55:37;93927.81;;;9.44;74.49
40502;BME280;29631;49.168;9.848;2023-01-16T12:58:27;93906.25;;;9.37;74.79
40502;BME280;29631;49.168;9.848;2023-01-16T13:01:19;93898.91;;;9.39;74.79
40502;BME280;29631;49.168;9.848;2023-01-16T13:04:20;93898.66;;;9.45;75.35
40502;BME280;29631;49.168;9.848;2023-01-16T13:06:58;93878.13;;;9.42;75.50
40502;BME280;29631;49.168;9.848;2023-01-16T13:09:41;93891.53;;;9.51;75.34
40502;BME280;29631;49.168;9.848;2023-01-16T13:12:24;93862.34;;;9.42;75.95
40502;BME280;29631;49.168;9.848;2023-01-16T13:15:17;93869.16;;;9.53;75.84
40502;BME280;29631;49.168;9.848;2023-01-16T13:17:47;93879.94;;;9.62;75.54
40502;BME280;29631;49.168;9.848;2023-01-16T13:20:17;93864.16;;;9.57;75.84
40502;BME280;29631;49.168;9.848;2023-01-16T13:25:35;93850.44;;;9.70;75.12
40502;BME280;29631;49.168;9.848;2023-01-16T13:28:32;93836.47;;;9.79;75.29
40502;BME280;29631;49.168;9.848;2023-01-16T13:31:07;93813.91;;;9.68;75.25
40502;BME280;29631;49.168;9.848;2023-01-16T13:33:37;93810.97;;;9.80;75.87
40502;BME280;29631;49.168;9.848;2023-01-16T13:42:14;93807.75;;;9.98;76.02
40502;BME280;29631;49.168;9.848;2023-01-16T13:44:46;93814.03;;;9.97;76.11
40502;BME280;29631;49.168;9.848;2023-01-16T13:47:37;93801.97;;;9.91;75.79
40502;BME280;29631;49.168;9.848;2023-01-16T13:52:34;93777.50;;;9.90;76.19
40502;BME280;29631;49.168;9.848;2023-01-16T13:55:02;93793.78;;;10.02;76.63
40502;BME280;29631;49.168;9.848;2023-01-16T13:57:32;93784.56;;;10.05;75.77
40502;BME280;29631;49.168;9.848;2023-01-16T14:00:01;93749.94;;;9.78;76.21
40502;BME280;29631;49.168;9.848;2023-01-16T14:02:41;93791.38;;;10.11;77.20
40502;BME280;29631;49.168;9.848;2023-01-16T14:13:34;93746.66;;;10.06;76.72
40502;BME280;29631;49.168;9.848;2023-01-16T14:21:28;93747.63;;;10.19;76.58
40502;BME280;29631;49.168;9.848;2023-01-16T14:23:59;93749.91;;;10.31;77.49
40502;BME280;29631;49.168;9.848;2023-01-16T14:29:35;93718.34;;;10.59;77.04
40502;BME280;29631;49.168;9.848;2023-01-16T14:34:40;93715.06;;;10.72;76.55
40502;BME280;29631;49.168;9.848;2023-01-16T14:37:39;93712.47;;;10.67;77.16
40502;BME280;29631;49.168;9.848;2023-01-16T14:42:52;93706.09;;;10.73;76.83
40502;BME280;29631;49.168;9.848;2023-01-16T14:45:39;93692.91;;;10.73;76.41
40502;BME280;29631;49.168;9.848;2023-01-16T14:57:16;93679.16;;;10.53;77.56
40502;BME280;29631;49.168;9.848;2023-01-16T14:59:54;93668.41;;;10.49;76.85
40502;BME280;29631;49.168;9.848;2023-01-16T15:02:37;93670.97;;;10.54;77.32
40502;BME280;29631;49.168;9.848;2023-01-16T15:05:22;93656.84;;;10.45;77.23
40502;BME280;29631;49.168;9.848;2023-01-16T15:07:54;93650.56;;;10.41;77.08
40502;BME280;29631;49.168;9.848;2023-01-16T15:10:36;93655.81;;;10.41;76.75
40502;BME280;29631;49.168;9.848;2023-01-16T15:15:56;93651.13;;;10.38;76.58
40502;BME280;29631;49.168;9.848;2023-01-16T15:18:24;93650.09;;;10.34;76.58
40502;BME280;29631;49.168;9.848;2023-01-16T15:21:19;93609.19;;;10.18;76.99
40502;BME280;29631;49.168;9.848;2023-01-16T15:24:06;93618.66;;;10.14;76.49
40502;BME280;29631;49.168;9.848;2023-01-16T15:26:46;93640.66;;;10.28;76.19
40502;BME280;29631;49.168;9.848;2023-01-16T15:32:14;93627.31;;;10.20;77.29
40502;BME280;29631;49.168;9.848;2023-01-16T15:34:47;93617.91;;;10.14;77.06
40502;BME280;29631;49.168;9.848;2023-01-16T15:37:23;93606.66;;;10.04;76.67
40502;BME280;29631;49.168;9.848;2023-01-16T15:39:50;93611.88;;;10.09;76.27
40502;BME280;29631;49.168;9.848;2023-01-16T15:42:28;93608.53;;;10.03;76.70
40502;BME280;29631;49.168;9.848;2023-01-16T15:45:24;93607.25;;;10.01;76.87
40502;BME280;29631;49.168;9.848;2023-01-16T15:51:11;93603.03;;;9.95;76.26
40502;BME280;29631;49.168;9.848;2023-01-16T15:53:44;93580.50;;;9.84;76.45
40502;BME280;29631;49.168;9.848;2023-01-16T15:56:30;93596.75;;;9.91;77.38
40502;BME280;29631;49.168;9.848;2023-01-16T15:58:59;93591.31;;;9.82;76.17
40502;BME280;29631;49.168;9.848;2023-01-16T16:01:33;93583.16;;;9.79;77.00
40502;BME280;29631;49.168;9.848;2023-01-16T16:04:02;93593.69;;;9.79;76.16